Decoded Metar for KTOL (TOLEDO in OH, USA) (IATA:TOL) | Meteo·Mobile Aviation Weather
aviador You're here:

KTOL Decoded Metar

TOLEDO in OH, USA
Report Time2019-08-17 22:52:00
UTC Time2019-08-17 23:15:32
Flight Rules vfr VFR
Wind190° at 03 kt
W.Decomp.*RWY 16: 2.5 kt HW 1.7 kt RCW
RWY 25: 1.7 kt HW 2.5 kt LCW
Visibility9999 m
Phenomena:N/A
Clouds:N/A
Expected CloudBase > 1,200 ft AGL from Temp-Dew spread
CeilingNone
Temp26°C (ISA +12)
Dew Point23°C (84% RH)
QNH1013 hPa
Density Alt2,490 ft
Elevation689 ft
Report Wrong Elevation
Raw Report
KTOL 172252Z 19003KT 10SM CLR 26/23 A2990 RMK AO2 SLP122
T02610228=

Extra information for KTOL:More info

Metar Taf Metar & Taf Last 4 Metars F.Rules Stats Wind Profile Meteogram Temp Stats Airport Information Weather charts Add Link Nearby VenuesMetar ALERT Operation Metar Decoded Social comments

AIRNAV info for KTOL